createdAt,value
2022-09-21T00:03:16.285Z,13.17
2022-09-21T00:07:13.276Z,13.05
2022-09-21T00:11:25.088Z,13.17
2022-09-21T00:15:22.706Z,13.30
2022-09-21T00:19:19.664Z,13.00
2022-09-21T00:23:16.804Z,12.85
2022-09-21T00:27:14.742Z,12.85
2022-09-21T00:31:18.230Z,12.65
2022-09-21T00:35:15.275Z,12.73
2022-09-21T00:39:12.491Z,12.81
2022-09-21T00:43:15.495Z,13.04
2022-09-21T00:47:17.378Z,13.13
2022-09-21T00:51:15.358Z,13.15
2022-09-21T00:55:33.907Z,13.08
2022-09-21T00:59:35.675Z,12.96
2022-09-21T01:03:33.199Z,12.86
2022-09-21T01:07:36.663Z,12.74
2022-09-21T01:12:03.169Z,12.67
2022-09-21T01:16:11.949Z,12.46
2022-09-21T01:20:40.294Z,12.84
2022-09-21T01:25:01.458Z,12.87
2022-09-21T01:29:34.239Z,13.11
2022-09-21T01:33:41.613Z,13.19
2022-09-21T01:38:03.842Z,12.98
2022-09-21T01:42:06.481Z,12.73
2022-09-21T01:46:09.885Z,12.79
2022-09-21T01:50:11.815Z,12.66
2022-09-21T01:54:17.835Z,12.54
2022-09-21T01:58:39.595Z,12.62
2022-09-21T02:03:05.529Z,12.64
2022-09-21T02:07:02.893Z,12.75
2022-09-21T02:11:03.049Z,12.72
2022-09-21T02:15:02.915Z,12.78
2022-09-21T02:19:25.751Z,12.60
2022-09-21T02:23:50.272Z,12.35
2022-09-21T02:28:04.268Z,12.13
2022-09-21T02:32:35.233Z,12.08
2022-09-21T02:36:56.999Z,12.00
2022-09-21T02:41:14.241Z,11.85
2022-09-21T02:45:25.637Z,11.98
2022-09-21T02:49:37.463Z,11.80
2022-09-21T02:53:38.448Z,11.92
2022-09-21T02:57:37.840Z,11.95
2022-09-21T03:01:36.023Z,11.91
2022-09-21T03:05:33.123Z,12.04
2022-09-21T03:09:30.055Z,12.25
2022-09-21T03:13:27.189Z,12.22
2022-09-21T03:17:24.663Z,12.39
2022-09-21T03:21:22.161Z,12.44
2022-09-21T03:25:19.149Z,11.58
2022-09-21T03:29:16.230Z,11.45
2022-09-21T03:33:13.296Z,11.52
2022-09-21T03:37:11.324Z,11.75
2022-09-21T03:41:08.461Z,11.73
2022-09-21T03:45:06.225Z,11.66
2022-09-21T03:49:03.202Z,11.90
2022-09-21T03:53:00.149Z,11.71
2022-09-21T03:56:57.253Z,11.68
2022-09-21T04:00:54.579Z,11.97
2022-09-21T04:04:51.710Z,11.74
2022-09-21T04:08:51.176Z,11.89
2022-09-21T04:12:48.762Z,11.81
2022-09-21T04:16:46.372Z,11.77
2022-09-21T04:20:43.316Z,11.79
2022-09-21T04:24:43.320Z,11.70
2022-09-21T04:28:40.254Z,11.48
2022-09-21T04:32:37.230Z,11.50
2022-09-21T04:36:36.698Z,11.63
2022-09-21T04:40:36.430Z,11.73
2022-09-21T04:44:33.493Z,11.66
2022-09-21T04:48:30.445Z,11.90
2022-09-21T04:52:28.274Z,11.80
2022-09-21T04:56:25.404Z,11.77
2022-09-21T05:00:22.543Z,11.88
2022-09-21T05:04:19.555Z,11.83
2022-09-21T05:08:17.568Z,11.83
2022-09-21T05:12:14.607Z,11.88
2022-09-21T05:16:11.947Z,11.94
2022-09-21T05:20:10.779Z,12.09
2022-09-21T05:24:07.972Z,12.13
2022-09-21T05:28:05.506Z,12.31
2022-09-21T05:32:28.881Z,12.45
2022-09-21T05:36:45.115Z,12.67
2022-09-21T05:40:42.563Z,12.77
2022-09-21T05:44:39.805Z,12.76
2022-09-21T05:48:48.066Z,12.69
2022-09-21T05:53:12.508Z,12.62
2022-09-21T05:57:31.361Z,12.69
2022-09-21T06:02:06.544Z,12.65
2022-09-21T06:06:08.349Z,13.09
2022-09-21T06:10:06.069Z,13.24
2022-09-21T06:14:03.189Z,13.16
2022-09-21T06:18:00.130Z,12.93
2022-09-21T06:21:57.265Z,12.98
2022-09-21T06:25:58.218Z,13.34
2022-09-21T06:29:55.540Z,13.54
2022-09-21T06:33:52.460Z,13.41
2022-09-21T06:37:49.422Z,13.35
2022-09-21T06:41:46.446Z,13.63
2022-09-21T06:45:43.787Z,13.63
2022-09-21T06:49:42.652Z,13.89
2022-09-21T06:53:41.941Z,14.22
2022-09-21T06:57:39.793Z,14.17
2022-09-21T07:01:37.008Z,14.45
2022-09-21T07:05:34.574Z,14.52
2022-09-21T07:13:50.484Z,14.89
2022-09-21T07:17:52.228Z,15.05
2022-09-21T07:21:49.624Z,15.37
2022-09-21T07:25:50.205Z,15.49
2022-09-21T07:29:47.147Z,15.84
2022-09-21T07:33:48.503Z,16.01
2022-09-21T07:37:45.399Z,16.02
2022-09-21T07:41:42.409Z,16.16
2022-09-21T07:45:39.738Z,16.40
2022-09-21T07:49:36.735Z,16.67
2022-09-21T07:53:39.671Z,16.76
2022-09-21T07:57:54.960Z,16.74
2022-09-21T08:01:51.947Z,16.85
2022-09-21T08:05:48.946Z,17.14
2022-09-21T08:09:49.531Z,17.41
2022-09-21T08:13:46.541Z,17.75
2022-09-21T08:17:43.692Z,17.70
2022-09-21T08:21:41.612Z,17.86
2022-09-21T08:25:38.582Z,17.88
2022-09-21T08:29:36.347Z,18.15
2022-09-21T08:33:33.300Z,18.43
2022-09-21T08:37:32.114Z,19.10
2022-09-21T08:42:10.370Z,19.09
2022-09-21T08:46:16.182Z,19.52
2022-09-21T08:50:38.144Z,19.34
2022-09-21T08:54:40.314Z,20.32
2022-09-21T08:58:37.662Z,20.59
2022-09-21T09:03:15.968Z,21.01
2022-09-21T09:07:28.760Z,21.46
2022-09-21T09:11:50.045Z,21.83
2022-09-21T09:16:04.262Z,22.44
2022-09-21T09:20:23.703Z,22.61
2022-09-21T09:24:51.632Z,22.59
2022-09-21T09:29:02.148Z,22.31
2022-09-21T09:33:14.832Z,22.43
2022-09-21T09:37:17.619Z,23.20
2022-09-21T09:41:41.595Z,24.22
2022-09-21T09:46:16.621Z,24.99
2022-09-21T09:50:35.202Z,25.50
2022-09-21T09:54:35.851Z,25.73
2022-09-21T09:58:49.720Z,26.32
2022-09-21T10:02:53.326Z,27.09
2022-09-21T10:06:50.283Z,27.80
2022-09-21T10:10:48.570Z,28.36
2022-09-21T10:15:00.804Z,28.79
2022-09-21T10:19:01.946Z,28.93
2022-09-21T10:23:00.940Z,29.63
2022-09-21T10:27:12.519Z,30.11
2022-09-21T10:31:25.056Z,30.27
2022-09-21T10:35:22.385Z,30.77
2022-09-21T10:39:31.966Z,30.72
2022-09-21T10:43:43.673Z,31.43
2022-09-21T10:47:48.430Z,31.42
2022-09-21T10:51:49.466Z,32.14
2022-09-21T10:56:18.808Z,32.84
2022-09-21T11:00:22.125Z,32.95
2022-09-21T11:04:32.133Z,33.21
2022-09-21T11:08:59.153Z,33.46
2022-09-21T11:13:56.656Z,33.44
2022-09-21T11:18:14.795Z,33.21
2022-09-21T11:22:42.295Z,33.84
2022-09-21T11:27:11.289Z,32.94
2022-09-21T11:31:41.281Z,34.65
2022-09-21T11:36:05.422Z,35.18
2022-09-21T11:40:32.936Z,34.42
2022-09-21T11:44:53.254Z,35.18
2022-09-21T11:49:15.781Z,34.42
2022-09-21T11:54:09.147Z,33.83
2022-09-21T11:58:27.481Z,33.43
2022-09-21T12:02:52.907Z,33.02
2022-09-21T12:07:20.562Z,34.66
2022-09-21T12:11:39.910Z,34.16
2022-09-21T12:15:59.921Z,34.23
2022-09-21T12:20:43.520Z,37.02
2022-09-21T12:24:51.924Z,38.76
2022-09-21T12:29:01.091Z,38.87
2022-09-21T12:33:10.014Z,39.07
2022-09-21T12:37:31.986Z,39.80
2022-09-21T12:41:58.604Z,37.82
2022-09-21T12:46:21.718Z,36.61
2022-09-21T12:50:49.484Z,36.13
2022-09-21T12:55:30.297Z,34.40
2022-09-21T13:00:00.840Z,32.15
2022-09-21T13:04:22.518Z,29.19
2022-09-21T13:08:36.896Z,28.80
2022-09-21T13:12:44.946Z,28.41
2022-09-21T13:16:42.539Z,28.78
2022-09-21T13:20:41.953Z,28.61
2022-09-21T13:24:40.413Z,28.76
2022-09-21T13:29:04.515Z,29.73
2022-09-21T13:33:04.471Z,30.01
2022-09-21T13:37:19.611Z,30.42
2022-09-21T13:41:19.691Z,30.04
2022-09-21T13:45:19.414Z,31.07
2022-09-21T13:49:34.088Z,31.53
2022-09-21T13:53:40.429Z,31.18
2022-09-21T13:57:47.202Z,31.30
2022-09-21T14:01:47.158Z,30.48
2022-09-21T14:05:50.576Z,30.05
2022-09-21T14:10:02.810Z,30.73
2022-09-21T14:14:12.215Z,31.12
2022-09-21T14:18:17.764Z,32.00
2022-09-21T14:22:14.727Z,32.94
2022-09-21T14:26:37.461Z,32.55
2022-09-21T14:30:37.136Z,32.61
2022-09-21T14:34:39.537Z,32.14
2022-09-21T14:38:54.354Z,30.89
2022-09-21T14:42:55.581Z,30.67
2022-09-21T14:47:07.925Z,30.76
2022-09-21T14:51:27.330Z,31.38
2022-09-21T14:55:48.029Z,31.27
2022-09-21T15:00:28.611Z,31.66
2022-09-21T15:04:54.738Z,32.08
2022-09-21T15:09:54.408Z,31.46
2022-09-21T15:14:17.072Z,31.69
2022-09-21T15:18:25.662Z,32.09
2022-09-21T15:22:23.101Z,32.10
2022-09-21T15:26:32.568Z,31.74
2022-09-21T15:30:33.286Z,31.56
2022-09-21T15:34:30.480Z,31.57
2022-09-21T15:38:31.909Z,31.63
2022-09-21T15:42:30.161Z,31.39
2022-09-21T15:46:27.391Z,31.21
2022-09-21T15:50:28.502Z,31.06
2022-09-21T15:54:38.169Z,30.87
2022-09-21T15:58:40.578Z,30.27
2022-09-21T16:02:40.864Z,29.68
2022-09-21T16:06:47.074Z,29.56
2022-09-21T16:10:44.805Z,29.24
2022-09-21T16:14:53.936Z,28.92
2022-09-21T16:19:00.223Z,28.56
2022-09-21T16:23:11.740Z,28.53
2022-09-21T16:27:18.821Z,28.26
2022-09-21T16:31:28.722Z,27.98
2022-09-21T16:35:29.425Z,27.83
2022-09-21T16:39:27.563Z,27.89
2022-09-21T16:43:24.514Z,27.31
2022-09-21T16:47:28.091Z,26.99
2022-09-21T16:51:27.947Z,26.53
2022-09-21T16:55:28.909Z,26.01
2022-09-21T16:59:27.784Z,25.41
2022-09-21T17:03:25.106Z,24.78
2022-09-21T17:07:22.228Z,24.13
2022-09-21T17:11:20.363Z,23.39
2022-09-21T17:15:17.376Z,22.58
2022-09-21T17:19:14.738Z,21.87
2022-09-21T17:23:12.177Z,21.43
2022-09-21T17:27:09.605Z,21.02
2022-09-21T17:31:09.422Z,20.64
2022-09-21T17:35:36.932Z,20.31
2022-09-21T17:39:33.903Z,19.91
2022-09-21T17:43:50.206Z,19.77
2022-09-21T17:47:50.394Z,19.54
2022-09-21T17:52:06.163Z,19.53
2022-09-21T17:56:32.942Z,19.00
2022-09-21T18:01:02.073Z,18.86
2022-09-21T18:05:10.109Z,18.75
2022-09-21T18:09:07.767Z,18.75
2022-09-21T18:13:48.168Z,18.43
2022-09-21T18:18:12.731Z,18.25
2022-09-21T18:22:57.489Z,18.18
2022-09-21T18:26:55.365Z,18.04
2022-09-21T18:31:17.054Z,18.04
2022-09-21T18:35:26.246Z,18.01
2022-09-21T18:39:32.237Z,17.85
2022-09-21T18:44:13.909Z,17.70
2022-09-21T18:48:58.236Z,17.40
2022-09-21T18:53:15.532Z,17.26
2022-09-21T18:57:15.045Z,17.14
2022-09-21T19:01:13.776Z,17.02
2022-09-21T19:05:14.703Z,16.94
2022-09-21T19:09:52.149Z,16.70
2022-09-21T19:14:26.830Z,16.69
2022-09-21T19:18:46.867Z,16.57
2022-09-21T19:23:01.135Z,16.50
2022-09-21T19:27:22.943Z,16.36
2022-09-21T19:31:20.484Z,16.23
2022-09-21T19:35:26.495Z,16.28
2022-09-21T19:39:23.851Z,16.16
2022-09-21T19:43:36.676Z,15.80
2022-09-21T19:48:04.225Z,15.92
2022-09-21T19:52:05.308Z,15.84
2022-09-21T19:56:21.788Z,15.68
2022-09-21T20:00:19.483Z,15.53
2022-09-21T20:04:25.390Z,15.45
2022-09-21T20:08:40.137Z,15.45
2022-09-21T20:13:10.188Z,15.50
2022-09-21T20:17:15.742Z,15.43
2022-09-21T20:21:18.880Z,15.44
2022-09-21T20:25:27.634Z,15.38
2022-09-21T20:29:24.666Z,15.17
2022-09-21T20:33:24.213Z,15.23
2022-09-21T20:37:22.484Z,15.18
2022-09-21T20:41:20.593Z,15.09
2022-09-21T20:45:17.694Z,15.03
2022-09-21T20:49:15.457Z,14.92
2022-09-21T20:53:12.979Z,14.88
2022-09-21T20:57:10.537Z,14.74
2022-09-21T21:01:08.834Z,14.71
2022-09-21T21:05:08.409Z,14.63
2022-09-21T21:09:05.444Z,14.56
2022-09-21T21:13:03.217Z,14.59
2022-09-21T21:17:02.858Z,14.40
2022-09-21T21:21:04.272Z,14.43
2022-09-21T21:25:01.269Z,14.47
2022-09-21T21:28:58.250Z,14.49
2022-09-21T21:32:56.042Z,14.42
2022-09-21T21:36:56.247Z,14.34
2022-09-21T21:40:55.709Z,14.29
2022-09-21T21:44:52.728Z,14.23
2022-09-21T21:48:52.208Z,14.39
2022-09-21T21:52:49.141Z,14.19
2022-09-21T21:56:46.354Z,14.09
2022-09-21T22:00:43.381Z,14.03
2022-09-21T22:04:42.603Z,14.11
2022-09-21T22:08:40.890Z,13.95
2022-09-21T22:12:37.845Z,13.99
2022-09-21T22:16:37.962Z,13.88
2022-09-21T22:20:35.228Z,13.69
2022-09-21T22:24:32.213Z,13.79
2022-09-21T22:28:29.278Z,13.78
2022-09-21T22:32:26.243Z,13.79
2022-09-21T22:36:26.580Z,13.70
2022-09-21T22:40:23.635Z,13.47
2022-09-21T22:44:20.638Z,13.42
2022-09-21T22:48:17.581Z,13.33
2022-09-21T22:52:14.644Z,13.50
2022-09-21T22:56:21.422Z,13.23
2022-09-21T23:00:18.526Z,13.12
2022-09-21T23:04:15.648Z,13.26
2022-09-21T23:08:12.833Z,13.22
2022-09-21T23:12:10.012Z,13.04
2022-09-21T23:16:10.913Z,13.05
2022-09-21T23:20:09.273Z,13.13
2022-09-21T23:24:06.430Z,12.93
2022-09-21T23:28:03.431Z,12.95
2022-09-21T23:32:00.657Z,12.92
2022-09-21T23:35:57.793Z,12.85
2022-09-21T23:39:54.964Z,12.77
2022-09-21T23:43:52.540Z,12.69
2022-09-21T23:47:49.492Z,12.71
2022-09-21T23:51:46.664Z,12.80
2022-09-21T23:55:43.656Z,12.82
2022-09-21T23:59:40.683Z,12.52
